Arrantzale — EBVT — position and weather

sailwx.info

Track history (hours):
 
Tides and Currents Weather Stations Pressure Air Temp Water Temp Dewpoint Dewpoint Depression Visibility Wind Speed Wind Dir Waves Ship Positions

Arrantzale

Last reported at 2018-Apr-27 01:01 UTC. Time now 2018-Apr-27 01:02 UTC.
Position N 43°22' W 002°08'.

Length 32 m.

Type: Fishing. MMSI: 224065290.

Date/timePositionNaut miles runAvg speedWind from/ knotsBaromVisibWave heightAir tempDewpointWater temp
2018-Apr-27 01:01N 43°22' W 002°08'4 8.4
2018-Apr-27 00:30N 43°19' W 002°11'1 0.3
2018-Apr-26 21:12N 43°18' W 002°12'0 0.4
2018-Apr-26 20:58N 43°18' W 002°12'0 0.2
2018-Apr-26 19:59N 43°18' W 002°12'0 0.0
2018-Apr-26 19:30N 43°18' W 002°12'0 0.0
2018-Apr-26 18:56N 43°18' W 002°12'0 0.0
2018-Apr-26 18:11N 43°18' W 002°12'1 3.4
2018-Apr-26 18:01N 43°19' W 002°11'3 6.9
2018-Apr-26 17:30N 43°22' W 002°11'0 0.5
2018-Apr-26 17:01N 43°22' W 002°11'0 0.6
2018-Apr-26 16:31N 43°22' W 002°10'0 0.3
2018-Apr-26 16:01N 43°22' W 002°10'0 0.9
2018-Apr-26 15:30N 43°22' W 002°10'2 3.1
2018-Apr-26 15:00N 43°21' W 002°12'0 0.2
2018-Apr-26 14:30N 43°21' W 002°12'0 0.1
2018-Apr-26 14:01N 43°21' W 002°12'1 1.3
2018-Apr-26 13:31N 43°22' W 002°12'5 9.4
2018-Apr-26 13:00N 43°26' W 002°10'4 7.2
2018-Apr-26 12:30N 43°29' W 002°14'4 8.8
2018-Apr-26 12:00N 43°25' W 002°13'0 0.4
2018-Apr-26 11:30N 43°24' W 002°13'0 0.2
2018-Apr-26 11:00N 43°25' W 002°13'0 0.3
2018-Apr-26 10:31N 43°25' W 002°13'2 3.6
2018-Apr-26 10:00N 43°26' W 002°15'1 2.1
2018-Apr-26 09:31N 43°25' W 002°14'4 7.9
2018-Apr-26 09:00N 43°26' W 002°19'0 0.5
2018-Apr-26 08:30N 43°26' W 002°19'0 0.2
2018-Apr-26 08:00N 43°26' W 002°19'1 2.2
2018-Apr-26 07:31N 43°25' W 002°18'3 6.7
2018-Apr-26 07:00N 43°28' W 002°15'2 3.6
2018-Apr-26 06:31N 43°29' W 002°17'0 0.9
2018-Apr-26 06:01N 43°29' W 002°17'2 3.4
2018-Apr-26 05:31N 43°29' W 002°19'2 4.7
2018-Apr-26 05:01N 43°27' W 002°20'5 9.1
2018-Apr-26 04:31N 43°30' W 002°25'1 1.7
2018-Apr-26 04:00N 43°29' W 002°25'4 7.3
2018-Apr-26 03:30N 43°31' W 002°21'510.7
2018-Apr-26 03:00N 43°31' W 002°13'4 7.5
2018-Apr-26 02:31N 43°33' W 002°09'0 0.8
2018-Apr-26 02:00N 43°33' W 002°08'0 0.8
2018-Apr-26 01:31N 43°33' W 002°08'1 1.0
2018-Apr-26 01:00N 43°34' W 002°08'1 1.1
2018-Apr-26 00:31N 43°34' W 002°08'1 1.0
2018-Apr-26 00:01N 43°35' W 002°08'1 1.0
2018-Apr-25 23:30N 43°35' W 002°08'0 1.0
2018-Apr-25 23:01N 43°36' W 002°08'0 0.9
2018-Apr-25 22:31N 43°36' W 002°08'2 3.9
2018-Apr-25 22:01N 43°35' W 002°07'3 6.3
2018-Apr-25 21:30N 43°33' W 002°10'5 9.2
2018-Apr-25 21:00N 43°36' W 002°15'2 3.0
2018-Apr-25 20:30N 43°37' W 002°16'0 0.7
2018-Apr-25 20:01N 43°37' W 002°17'0 0.7
2018-Apr-25 19:31N 43°37' W 002°17'2 4.6
2018-Apr-25 19:01N 43°36' W 002°20'3 6.1
2018-Apr-25 18:31N 43°35' W 002°24'2 3.4
2018-Apr-25 18:01N 43°35' W 002°26'0 0.5
2018-Apr-25 17:30N 43°35' W 002°26'0 0.5
2018-Apr-25 17:01N 43°35' W 002°27'0 0.5
2018-Apr-25 16:31N 43°35' W 002°27'0 0.5
2018-Apr-25 16:01N 43°35' W 002°27'0 0.4
2018-Apr-25 15:31N 43°35' W 002°28'1 2.1
2018-Apr-25 15:00N 43°34' W 002°27'5 9.2
2018-Apr-25 14:31N 43°31' W 002°22'5 9.4
2018-Apr-25 14:00N 43°29' W 002°16'5 9.7
2018-Apr-25 13:31N 43°28' W 002°10'5 9.9
2018-Apr-25 13:01N 43°26' W 002°03'5 9.6
2018-Apr-25 12:31N 43°26' W 001°57'5 9.3
2018-Apr-25 12:00N 43°24' W 001°50'2 4.8
2018-Apr-25 11:30N 43°23' W 001°47'0 0.1
2018-Apr-25 11:00N 43°23' W 001°47'0 0.0
2018-Apr-25 10:30N 43°23' W 001°47'0 0.0
2018-Apr-25 10:00N 43°23' W 001°47'1 2.5
2018-Apr-25 09:30N 43°24' W 001°48'510.8
2018-Apr-25 09:01N 43°26' W 001°55'510.7
2018-Apr-25 08:30N 43°28' W 002°02'510.7
2018-Apr-25 08:00N 43°30' W 002°09'510.6
2018-Apr-25 07:30N 43°32' W 002°15'2 4.5
2018-Apr-25 07:01N 43°33' W 002°18'0 0.3
2018-Apr-25 06:31N 43°33' W 002°18'0 0.2
2018-Apr-25 06:01N 43°34' W 002°18'0 0.1
2018-Apr-25 05:31N 43°34' W 002°18'0 0.6
2018-Apr-25 05:00N 43°34' W 002°18'5 9.1
2018-Apr-25 04:31N 43°36' W 002°24'510.1
2018-Apr-25 04:01N 43°35' W 002°30'1 2.3
2018-Apr-25 03:30N 43°34' W 002°32'3 5.1
2018-Apr-25 03:01N 43°35' W 002°28'5 9.3
2018-Apr-25 02:30N 43°34' W 002°35'2 4.5
2018-Apr-25 02:01N 43°34' W 002°31'3 6.3
2018-Apr-25 01:31N 43°34' W 002°27'0 0.2
2018-Apr-25 01:01N 43°34' W 002°27'0 0.1
2018-Apr-25 00:31N 43°34' W 002°27'1 2.9
2018-Apr-25 00:00N 43°34' W 002°29'1 2.4
2018-Apr-24 23:31N 43°35' W 002°28'510.7
2018-Apr-24 23:01N 43°33' W 002°35'2 3.5
2018-Apr-24 22:31N 43°33' W 002°38'0 0.3
2018-Apr-24 22:01N 43°33' W 002°38'0 0.5
2018-Apr-24 21:31N 43°33' W 002°37'4 7.8
2018-Apr-24 21:01N 43°35' W 002°32'1 2.8
2018-Apr-24 20:30N 43°36' W 002°31'0 0.5
2018-Apr-24 20:01N 43°36' W 002°31'0 0.5
2018-Apr-24 19:31N 43°37' W 002°31'0 0.5
2018-Apr-24 19:01N 43°37' W 002°31'2 4.4
2018-Apr-24 18:31N 43°37' W 002°34'1 2.0
2018-Apr-24 18:01N 43°38' W 002°34'2 4.6
2018-Apr-24 17:31N 43°36' W 002°33'2 3.4
2018-Apr-24 17:00N 43°36' W 002°31'3 5.2
2018-Apr-24 16:30N 43°35' W 002°35'2 3.0
2018-Apr-24 16:00N 43°35' W 002°37'1 1.7
2018-Apr-24 15:30N 43°34' W 002°37'0 0.1
2018-Apr-24 15:01N 43°34' W 002°37'1 1.5
2018-Apr-24 14:31N 43°34' W 002°37'2 4.6
2018-Apr-24 14:01N 43°36' W 002°37'5 9.6
2018-Apr-24 13:31N 43°36' W 002°43'3 6.4
2018-Apr-24 13:01N 43°34' W 002°46'1 2.2
2018-Apr-24 12:31N 43°34' W 002°48'2 3.8
2018-Apr-24 12:01N 43°34' W 002°45'1 3.0
2018-Apr-24 11:31N 43°36' W 002°45'5 9.8
2018-Apr-24 11:00N 43°37' W 002°51'510.6
2018-Apr-24 10:31N 43°38' W 002°59'510.5
2018-Apr-24 10:01N 43°37' W 003°06'510.5
2018-Apr-24 09:30N 43°37' W 003°13'610.3
2018-Apr-24 08:56N 43°37' W 003°21'410.1
2018-Apr-24 08:31N 43°37' W 003°27'510.0
2018-Apr-24 08:00N 43°37' W 003°34'510.4
2018-Apr-24 07:30N 43°38' W 003°42'7910.0
2018-Apr-23 23:38N 43°42' W 005°31'410.3
2018-Apr-23 23:15N 43°42' W 005°36'8 2.0
2018-Apr-23 19:18N 43°41' W 005°47'310.5
2018-Apr-23 18:58N 43°40' W 005°42'610.5
2018-Apr-23 18:24N 43°39' W 005°34'610.4
2018-Apr-23 17:50N 43°38' W 005°26'84 5.7
2018-Apr-23 03:02N 43°33' W 003°30'110.2
2018-Apr-23 02:57N 43°33' W 003°29'410.2
2018-Apr-23 02:30N 43°32' W 003°23'510.1
2018-Apr-23 02:00N 43°31' W 003°16'4 8.9
2018-Apr-23 01:30N 43°32' W 003°10'5 9.3
2018-Apr-23 00:56N 43°31' W 003°03'4 9.4
2018-Apr-23 00:30N 43°31' W 002°57'5 9.9
2018-Apr-23 00:00N 43°30' W 002°51'5 9.7
2018-Apr-22 23:30N 43°29' W 002°44'5 9.6
2018-Apr-22 23:00N 43°28' W 002°38'5 9.4
2018-Apr-22 22:31N 43°27' W 002°31'5 9.5
2018-Apr-22 22:00N 43°26' W 002°25'5 9.5
2018-Apr-22 21:30N 43°26' W 002°18'5 9.3
2018-Apr-22 21:00N 43°26' W 002°12'5 9.3
2018-Apr-22 20:30N 43°25' W 002°06'5 9.3
2018-Apr-22 20:00N 43°25' W 001°59'5 9.3
2018-Apr-22 19:30N 43°25' W 001°53'4 8.8
2018-Apr-22 19:01N 43°24' W 001°47'1 1.1
2018-Apr-22 18:30N 43°23' W 001°47'0 0.0
2018-Apr-22 18:00N 43°23' W 001°47'0 0.0
2018-Apr-20 19:25N 43°23' W 001°47'0 0.0
2018-Apr-20 19:00N 43°23' W 001°47'0 0.0
2018-Apr-20 18:30N 43°23' W 001°47'0 0.0
2018-Apr-20 18:00N 43°23' W 001°47'0 0.0
2018-Apr-20 17:30N 43°23' W 001°47'0 0.0
2018-Apr-20 16:59N 43°23' W 001°47'0 0.0
2018-Apr-20 16:30N 43°23' W 001°47'0 0.0
2018-Apr-20 16:00N 43°23' W 001°47'0 0.0
2018-Apr-20 15:31N 43°23' W 001°47'1 1.8
2018-Apr-20 15:00N 43°24' W 001°47'510.7
2018-Apr-20 14:30N 43°29' W 001°47'610.6
2018-Apr-20 13:58N 43°35' W 001°47'2 0.1
2018-Apr-19 18:19N 43°37' W 001°47'610.8
2018-Apr-19 17:44N 43°31' W 001°47'410.8
2018-Apr-19 17:22N 43°27' W 001°47'410.1
2018-Apr-19 17:00N 43°23' W 001°47'0 0.7
2018-Apr-19 16:30N 43°23' W 001°47'0 0.2
2018-Apr-19 16:00N 43°23' W 001°48'0 0.0
2018-Apr-19 15:30N 43°23' W 001°48'0 0.0
2018-Apr-19 15:00N 43°23' W 001°47'0 0.0
2018-Apr-19 14:30N 43°23' W 001°48'0 0.1
2018-Apr-19 14:01N 43°23' W 001°47'510.4
2018-Apr-19 13:30N 43°28' W 001°46'611.3
2018-Apr-19 12:58N 43°34' W 001°46'4610.5
2018-Apr-19 08:33N 44°21' W 001°43'110.7
2018-Apr-19 08:25N 44°22' W 001°43'510.9
2018-Apr-19 07:59N 44°27' W 001°43'510.8
2018-Apr-19 07:30N 44°32' W 001°43'510.8
2018-Apr-19 07:00N 44°38' W 001°43'0 0.8
2018-Apr-19 06:31N 44°38' W 001°42'1 1.6
2018-Apr-19 06:00N 44°38' W 001°43'2 3.5
2018-Apr-19 05:20N 44°39' W 001°46'0 0.3
2018-Apr-19 05:00N 44°39' W 001°46'0 0.5
2018-Apr-19 04:28N 44°39' W 001°45'3 5.7
2018-Apr-19 04:00N 44°38' W 001°42'3 5.1
2018-Apr-19 03:30N 44°40' W 001°44'2 3.9
2018-Apr-19 03:00N 44°39' W 001°47'0 0.5
2018-Apr-19 02:30N 44°39' W 001°47'0 0.4
2018-Apr-19 02:00N 44°39' W 001°47'0 0.8
2018-Apr-19 01:30N 44°39' W 001°48'6910.4
2018-Apr-18 18:55N 43°30' W 001°47'410.0
2018-Apr-18 18:30N 43°26' W 001°47'3 6.4
2018-Apr-18 18:01N 43°23' W 001°47'0 0.1
2018-Apr-18 17:30N 43°23' W 001°48'0 0.0
2018-Apr-18 17:01N 43°23' W 001°48'0 0.0
2018-Apr-18 16:30N 43°23' W 001°48'2 3.9
2018-Apr-18 16:00N 43°25' W 001°46'510.5
2018-Apr-18 15:30N 43°30' W 001°47'510.2
2018-Apr-18 15:00N 43°35' W 001°46'5410.5
2018-Apr-18 09:51N 44°29' W 001°45'2 1.7
2018-Apr-18 08:48N 44°28' W 001°46'0 0.4
2018-Apr-18 08:30N 44°27' W 001°46'5 9.0
2018-Apr-18 07:59N 44°30' W 001°52'3 2.4
2018-Apr-18 06:37N 44°33' W 001°52'1 4.6
2018-Apr-18 06:30N 44°33' W 001°52'0 0.6
2018-Apr-18 05:57N 44°33' W 001°51'0 0.6
2018-Apr-18 05:19N 44°34' W 001°51'0 0.5
2018-Apr-18 04:52N 44°34' W 001°51'0 0.3
2018-Apr-18 04:30N 44°34' W 001°51'510.2
2018-Apr-18 04:00N 44°29' W 001°53'2 3.2
2018-Apr-18 03:24N 44°30' W 001°51'1 1.0
2018-Apr-18 02:49N 44°30' W 001°51'1 2.9
2018-Apr-18 02:26N 44°29' W 001°51'2 4.2
2018-Apr-18 01:58N 44°27' W 001°50'1 2.3
2018-Apr-18 01:25N 44°29' W 001°50'0 0.1
2018-Apr-18 01:01N 44°29' W 001°50'0 0.2
2018-Apr-18 00:30N 44°29' W 001°49'0 0.4
2018-Apr-18 00:00N 44°28' W 001°49'0 0.4
2018-Apr-17 23:30N 44°28' W 001°49'0 0.6
2018-Apr-17 23:00N 44°28' W 001°48'0 0.5
2018-Apr-17 22:30N 44°28' W 001°48'1 1.8
2018-Apr-17 22:00N 44°28' W 001°49'3 5.5
2018-Apr-17 21:30N 44°28' W 001°53'4 2.7
2018-Apr-17 20:02N 44°24' W 001°52'0 8.1
2018-Apr-17 20:00N 44°24' W 001°52'35 7.6
2018-Apr-17 15:20N 43°49' W 001°48'24 9.6
2018-Apr-17 12:53N 43°25' W 001°47'2 5.9
2018-Apr-17 12:30N 43°23' W 001°47'0 0.1
2018-Apr-17 12:00N 43°23' W 001°47'0 0.0
2018-Apr-17 11:30N 43°23' W 001°47'0 0.0
2018-Apr-17 11:00N 43°23' W 001°47'0 0.1
2018-Apr-17 10:30N 43°23' W 001°48'0 0.6
2018-Apr-17 10:00N 43°23' W 001°47'510.1
2018-Apr-17 09:30N 43°28' W 001°47'610.4
2018-Apr-17 08:53N 43°35' W 001°47'  
Track history (hours):
 
Tides and Currents Weather Stations Pressure Air Temp Water Temp Dewpoint Dewpoint Depression Visibility Wind Speed Wind Dir Waves Ship Positions

Arrantzale

Last reported at 2018-Apr-27 01:01 UTC. Time now 2018-Apr-27 01:02 UTC.
Position N 43°22' W 002°08'.

Length 32 m.

Type: Fishing. MMSI: 224065290.

Date/timePositionNaut miles runAvg speedWind from/ knotsBaromVisibWave heightAir tempDewpointWater temp
2018-Apr-27 01:01N 43°22' W 002°08'4 8.4
2018-Apr-27 00:30N 43°19' W 002°11'1 0.3
2018-Apr-26 21:12N 43°18' W 002°12'0 0.4
2018-Apr-26 20:58N 43°18' W 002°12'0 0.2
2018-Apr-26 19:59N 43°18' W 002°12'0 0.0
2018-Apr-26 19:30N 43°18' W 002°12'0 0.0
2018-Apr-26 18:56N 43°18' W 002°12'0 0.0
2018-Apr-26 18:11N 43°18' W 002°12'1 3.4
2018-Apr-26 18:01N 43°19' W 002°11'3 6.9
2018-Apr-26 17:30N 43°22' W 002°11'0 0.5
2018-Apr-26 17:01N 43°22' W 002°11'0 0.6
2018-Apr-26 16:31N 43°22' W 002°10'0 0.3
2018-Apr-26 16:01N 43°22' W 002°10'0 0.9
2018-Apr-26 15:30N 43°22' W 002°10'2 3.1
2018-Apr-26 15:00N 43°21' W 002°12'0 0.2
2018-Apr-26 14:30N 43°21' W 002°12'0 0.1
2018-Apr-26 14:01N 43°21' W 002°12'1 1.3
2018-Apr-26 13:31N 43°22' W 002°12'5 9.4
2018-Apr-26 13:00N 43°26' W 002°10'4 7.2
2018-Apr-26 12:30N 43°29' W 002°14'4 8.8
2018-Apr-26 12:00N 43°25' W 002°13'0 0.4
2018-Apr-26 11:30N 43°24' W 002°13'0 0.2
2018-Apr-26 11:00N 43°25' W 002°13'0 0.3
2018-Apr-26 10:31N 43°25' W 002°13'2 3.6
2018-Apr-26 10:00N 43°26' W 002°15'1 2.1
2018-Apr-26 09:31N 43°25' W 002°14'4 7.9
2018-Apr-26 09:00N 43°26' W 002°19'0 0.5
2018-Apr-26 08:30N 43°26' W 002°19'0 0.2
2018-Apr-26 08:00N 43°26' W 002°19'1 2.2
2018-Apr-26 07:31N 43°25' W 002°18'3 6.7
2018-Apr-26 07:00N 43°28' W 002°15'2 3.6
2018-Apr-26 06:31N 43°29' W 002°17'0 0.9
2018-Apr-26 06:01N 43°29' W 002°17'2 3.4
2018-Apr-26 05:31N 43°29' W 002°19'2 4.7
2018-Apr-26 05:01N 43°27' W 002°20'5 9.1
2018-Apr-26 04:31N 43°30' W 002°25'1 1.7
2018-Apr-26 04:00N 43°29' W 002°25'4 7.3
2018-Apr-26 03:30N 43°31' W 002°21'510.7
2018-Apr-26 03:00N 43°31' W 002°13'4 7.5
2018-Apr-26 02:31N 43°33' W 002°09'0 0.8
2018-Apr-26 02:00N 43°33' W 002°08'0 0.8
2018-Apr-26 01:31N 43°33' W 002°08'1 1.0
2018-Apr-26 01:00N 43°34' W 002°08'1 1.1
2018-Apr-26 00:31N 43°34' W 002°08'1 1.0
2018-Apr-26 00:01N 43°35' W 002°08'1 1.0
2018-Apr-25 23:30N 43°35' W 002°08'0 1.0
2018-Apr-25 23:01N 43°36' W 002°08'0 0.9
2018-Apr-25 22:31N 43°36' W 002°08'2 3.9
2018-Apr-25 22:01N 43°35' W 002°07'3 6.3
2018-Apr-25 21:30N 43°33' W 002°10'5 9.2
2018-Apr-25 21:00N 43°36' W 002°15'2 3.0
2018-Apr-25 20:30N 43°37' W 002°16'0 0.7
2018-Apr-25 20:01N 43°37' W 002°17'0 0.7
2018-Apr-25 19:31N 43°37' W 002°17'2 4.6
2018-Apr-25 19:01N 43°36' W 002°20'3 6.1
2018-Apr-25 18:31N 43°35' W 002°24'2 3.4
2018-Apr-25 18:01N 43°35' W 002°26'0 0.5
2018-Apr-25 17:30N 43°35' W 002°26'0 0.5
2018-Apr-25 17:01N 43°35' W 002°27'0 0.5
2018-Apr-25 16:31N 43°35' W 002°27'0 0.5
2018-Apr-25 16:01N 43°35' W 002°27'0 0.4
2018-Apr-25 15:31N 43°35' W 002°28'1 2.1
2018-Apr-25 15:00N 43°34' W 002°27'5 9.2
2018-Apr-25 14:31N 43°31' W 002°22'5 9.4
2018-Apr-25 14:00N 43°29' W 002°16'5 9.7
2018-Apr-25 13:31N 43°28' W 002°10'5 9.9
2018-Apr-25 13:01N 43°26' W 002°03'5 9.6
2018-Apr-25 12:31N 43°26' W 001°57'5 9.3
2018-Apr-25 12:00N 43°24' W 001°50'2 4.8
2018-Apr-25 11:30N 43°23' W 001°47'0 0.1
2018-Apr-25 11:00N 43°23' W 001°47'0 0.0
2018-Apr-25 10:30N 43°23' W 001°47'0 0.0
2018-Apr-25 10:00N 43°23' W 001°47'1 2.5
2018-Apr-25 09:30N 43°24' W 001°48'510.8
2018-Apr-25 09:01N 43°26' W 001°55'510.7
2018-Apr-25 08:30N 43°28' W 002°02'510.7
2018-Apr-25 08:00N 43°30' W 002°09'510.6
2018-Apr-25 07:30N 43°32' W 002°15'2 4.5
2018-Apr-25 07:01N 43°33' W 002°18'0 0.3
2018-Apr-25 06:31N 43°33' W 002°18'0 0.2
2018-Apr-25 06:01N 43°34' W 002°18'0 0.1
2018-Apr-25 05:31N 43°34' W 002°18'0 0.6
2018-Apr-25 05:00N 43°34' W 002°18'5 9.1
2018-Apr-25 04:31N 43°36' W 002°24'510.1
2018-Apr-25 04:01N 43°35' W 002°30'1 2.3
2018-Apr-25 03:30N 43°34' W 002°32'3 5.1
2018-Apr-25 03:01N 43°35' W 002°28'5 9.3
2018-Apr-25 02:30N 43°34' W 002°35'2 4.5
2018-Apr-25 02:01N 43°34' W 002°31'3 6.3
2018-Apr-25 01:31N 43°34' W 002°27'0 0.2
2018-Apr-25 01:01N 43°34' W 002°27'0 0.1
2018-Apr-25 00:31N 43°34' W 002°27'1 2.9
2018-Apr-25 00:00N 43°34' W 002°29'1 2.4
2018-Apr-24 23:31N 43°35' W 002°28'510.7
2018-Apr-24 23:01N 43°33' W 002°35'2 3.5
2018-Apr-24 22:31N 43°33' W 002°38'0 0.3
2018-Apr-24 22:01N 43°33' W 002°38'0 0.5
2018-Apr-24 21:31N 43°33' W 002°37'4 7.8
2018-Apr-24 21:01N 43°35' W 002°32'1 2.8
2018-Apr-24 20:30N 43°36' W 002°31'0 0.5
2018-Apr-24 20:01N 43°36' W 002°31'0 0.5
2018-Apr-24 19:31N 43°37' W 002°31'0 0.5
2018-Apr-24 19:01N 43°37' W 002°31'2 4.4
2018-Apr-24 18:31N 43°37' W 002°34'1 2.0
2018-Apr-24 18:01N 43°38' W 002°34'2 4.6
2018-Apr-24 17:31N 43°36' W 002°33'2 3.4
2018-Apr-24 17:00N 43°36' W 002°31'3 5.2
2018-Apr-24 16:30N 43°35' W 002°35'2 3.0
2018-Apr-24 16:00N 43°35' W 002°37'1 1.7
2018-Apr-24 15:30N 43°34' W 002°37'0 0.1
2018-Apr-24 15:01N 43°34' W 002°37'1 1.5
2018-Apr-24 14:31N 43°34' W 002°37'2 4.6
2018-Apr-24 14:01N 43°36' W 002°37'5 9.6
2018-Apr-24 13:31N 43°36' W 002°43'3 6.4
2018-Apr-24 13:01N 43°34' W 002°46'1 2.2
2018-Apr-24 12:31N 43°34' W 002°48'2 3.8
2018-Apr-24 12:01N 43°34' W 002°45'1 3.0
2018-Apr-24 11:31N 43°36' W 002°45'5 9.8
2018-Apr-24 11:00N 43°37' W 002°51'510.6
2018-Apr-24 10:31N 43°38' W 002°59'510.5
2018-Apr-24 10:01N 43°37' W 003°06'510.5
2018-Apr-24 09:30N 43°37' W 003°13'610.3
2018-Apr-24 08:56N 43°37' W 003°21'410.1
2018-Apr-24 08:31N 43°37' W 003°27'510.0
2018-Apr-24 08:00N 43°37' W 003°34'510.4
2018-Apr-24 07:30N 43°38' W 003°42'7910.0
2018-Apr-23 23:38N 43°42' W 005°31'410.3
2018-Apr-23 23:15N 43°42' W 005°36'8 2.0
2018-Apr-23 19:18N 43°41' W 005°47'310.5
2018-Apr-23 18:58N 43°40' W 005°42'610.5
2018-Apr-23 18:24N 43°39' W 005°34'610.4
2018-Apr-23 17:50N 43°38' W 005°26'84 5.7
2018-Apr-23 03:02N 43°33' W 003°30'110.2
2018-Apr-23 02:57N 43°33' W 003°29'410.2
2018-Apr-23 02:30N 43°32' W 003°23'510.1
2018-Apr-23 02:00N 43°31' W 003°16'4 8.9
2018-Apr-23 01:30N 43°32' W 003°10'5 9.3
2018-Apr-23 00:56N 43°31' W 003°03'4 9.4
2018-Apr-23 00:30N 43°31' W 002°57'5 9.9
2018-Apr-23 00:00N 43°30' W 002°51'5 9.7
2018-Apr-22 23:30N 43°29' W 002°44'5 9.6
2018-Apr-22 23:00N 43°28' W 002°38'5 9.4
2018-Apr-22 22:31N 43°27' W 002°31'5 9.5
2018-Apr-22 22:00N 43°26' W 002°25'5 9.5
2018-Apr-22 21:30N 43°26' W 002°18'5 9.3
2018-Apr-22 21:00N 43°26' W 002°12'5 9.3
2018-Apr-22 20:30N 43°25' W 002°06'5 9.3
2018-Apr-22 20:00N 43°25' W 001°59'5 9.3
2018-Apr-22 19:30N 43°25' W 001°53'4 8.8
2018-Apr-22 19:01N 43°24' W 001°47'1 1.1
2018-Apr-22 18:30N 43°23' W 001°47'0 0.0
2018-Apr-22 18:00N 43°23' W 001°47'0 0.0
2018-Apr-20 19:25N 43°23' W 001°47'0 0.0
2018-Apr-20 19:00N 43°23' W 001°47'0 0.0
2018-Apr-20 18:30N 43°23' W 001°47'0 0.0
2018-Apr-20 18:00N 43°23' W 001°47'0 0.0
2018-Apr-20 17:30N 43°23' W 001°47'0 0.0
2018-Apr-20 16:59N 43°23' W 001°47'0 0.0
2018-Apr-20 16:30N 43°23' W 001°47'0 0.0
2018-Apr-20 16:00N 43°23' W 001°47'0 0.0
2018-Apr-20 15:31N 43°23' W 001°47'1 1.8
2018-Apr-20 15:00N 43°24' W 001°47'510.7
2018-Apr-20 14:30N 43°29' W 001°47'610.6
2018-Apr-20 13:58N 43°35' W 001°47'2 0.1
2018-Apr-19 18:19N 43°37' W 001°47'610.8
2018-Apr-19 17:44N 43°31' W 001°47'410.8
2018-Apr-19 17:22N 43°27' W 001°47'410.1
2018-Apr-19 17:00N 43°23' W 001°47'0 0.7
2018-Apr-19 16:30N 43°23' W 001°47'0 0.2
2018-Apr-19 16:00N 43°23' W 001°48'0 0.0
2018-Apr-19 15:30N 43°23' W 001°48'0 0.0
2018-Apr-19 15:00N 43°23' W 001°47'0 0.0
2018-Apr-19 14:30N 43°23' W 001°48'0 0.1
2018-Apr-19 14:01N 43°23' W 001°47'510.4
2018-Apr-19 13:30N 43°28' W 001°46'611.3
2018-Apr-19 12:58N 43°34' W 001°46'4610.5
2018-Apr-19 08:33N 44°21' W 001°43'110.7
2018-Apr-19 08:25N 44°22' W 001°43'510.9
2018-Apr-19 07:59N 44°27' W 001°43'510.8
2018-Apr-19 07:30N 44°32' W 001°43'510.8
2018-Apr-19 07:00N 44°38' W 001°43'0 0.8
2018-Apr-19 06:31N 44°38' W 001°42'1 1.6
2018-Apr-19 06:00N 44°38' W 001°43'2 3.5
2018-Apr-19 05:20N 44°39' W 001°46'0 0.3
2018-Apr-19 05:00N 44°39' W 001°46'0 0.5
2018-Apr-19 04:28N 44°39' W 001°45'3 5.7
2018-Apr-19 04:00N 44°38' W 001°42'3 5.1
2018-Apr-19 03:30N 44°40' W 001°44'2 3.9
2018-Apr-19 03:00N 44°39' W 001°47'0 0.5
2018-Apr-19 02:30N 44°39' W 001°47'0 0.4
2018-Apr-19 02:00N 44°39' W 001°47'0 0.8
2018-Apr-19 01:30N 44°39' W 001°48'6910.4
2018-Apr-18 18:55N 43°30' W 001°47'410.0
2018-Apr-18 18:30N 43°26' W 001°47'3 6.4
2018-Apr-18 18:01N 43°23' W 001°47'0 0.1
2018-Apr-18 17:30N 43°23' W 001°48'0 0.0
2018-Apr-18 17:01N 43°23' W 001°48'0 0.0
2018-Apr-18 16:30N 43°23' W 001°48'2 3.9
2018-Apr-18 16:00N 43°25' W 001°46'510.5
2018-Apr-18 15:30N 43°30' W 001°47'510.2
2018-Apr-18 15:00N 43°35' W 001°46'5410.5
2018-Apr-18 09:51N 44°29' W 001°45'2 1.7
2018-Apr-18 08:48N 44°28' W 001°46'0 0.4
2018-Apr-18 08:30N 44°27' W 001°46'5 9.0
2018-Apr-18 07:59N 44°30' W 001°52'3 2.4
2018-Apr-18 06:37N 44°33' W 001°52'1 4.6
2018-Apr-18 06:30N 44°33' W 001°52'0 0.6
2018-Apr-18 05:57N 44°33' W 001°51'0 0.6
2018-Apr-18 05:19N 44°34' W 001°51'0 0.5
2018-Apr-18 04:52N 44°34' W 001°51'0 0.3
2018-Apr-18 04:30N 44°34' W 001°51'510.2
2018-Apr-18 04:00N 44°29' W 001°53'2 3.2
2018-Apr-18 03:24N 44°30' W 001°51'1 1.0
2018-Apr-18 02:49N 44°30' W 001°51'1 2.9
2018-Apr-18 02:26N 44°29' W 001°51'2 4.2
2018-Apr-18 01:58N 44°27' W 001°50'1 2.3
2018-Apr-18 01:25N 44°29' W 001°50'0 0.1
2018-Apr-18 01:01N 44°29' W 001°50'0 0.2
2018-Apr-18 00:30N 44°29' W 001°49'0 0.4
2018-Apr-18 00:00N 44°28' W 001°49'0 0.4
2018-Apr-17 23:30N 44°28' W 001°49'0 0.6
2018-Apr-17 23:00N 44°28' W 001°48'0 0.5
2018-Apr-17 22:30N 44°28' W 001°48'1 1.8
2018-Apr-17 22:00N 44°28' W 001°49'3 5.5
2018-Apr-17 21:30N 44°28' W 001°53'4 2.7
2018-Apr-17 20:02N 44°24' W 001°52'0 8.1
2018-Apr-17 20:00N 44°24' W 001°52'35 7.6
2018-Apr-17 15:20N 43°49' W 001°48'24 9.6
2018-Apr-17 12:53N 43°25' W 001°47'2 5.9
2018-Apr-17 12:30N 43°23' W 001°47'0 0.1
2018-Apr-17 12:00N 43°23' W 001°47'0 0.0
2018-Apr-17 11:30N 43°23' W 001°47'0 0.0
2018-Apr-17 11:00N 43°23' W 001°47'0 0.1
2018-Apr-17 10:30N 43°23' W 001°48'0 0.6
2018-Apr-17 10:00N 43°23' W 001°47'510.1
2018-Apr-17 09:30N 43°28' W 001°47'610.4
2018-Apr-17 08:53N 43°35' W 001°47'  

Dump ship's entire track history